createdAt,value
2017-06-10T00:03:22.378Z,16.70
2017-06-10T00:05:55.142Z,16.60
2017-06-10T00:08:28.322Z,16.60
2017-06-10T00:11:01.201Z,16.50
2017-06-10T00:13:34.261Z,16.50
2017-06-10T00:16:08.510Z,16.50
2017-06-10T00:18:40.990Z,16.50
2017-06-10T00:21:13.406Z,16.50
2017-06-10T00:23:48.339Z,16.50
2017-06-10T00:26:22.014Z,16.40
2017-06-10T00:28:54.631Z,16.40
2017-06-10T00:31:28.142Z,16.40
2017-06-10T00:34:01.736Z,16.40
2017-06-10T00:36:34.768Z,16.50
2017-06-10T00:39:08.194Z,16.50
2017-06-10T00:41:41.138Z,16.60
2017-06-10T00:44:14.219Z,16.60
2017-06-10T00:46:47.147Z,16.70
2017-06-10T00:49:20.167Z,16.70
2017-06-10T00:51:53.081Z,16.60
2017-06-10T00:54:26.338Z,16.70
2017-06-10T00:57:00.281Z,16.60
2017-06-10T00:59:33.109Z,16.60
2017-06-10T01:02:05.983Z,16.70
2017-06-10T01:04:39.382Z,16.70
2017-06-10T01:07:12.306Z,16.70
2017-06-10T01:09:46.526Z,16.70
2017-06-10T01:12:20.747Z,16.70
2017-06-10T01:14:53.929Z,16.70
2017-06-10T01:17:26.852Z,16.80
2017-06-10T01:20:00.794Z,16.80
2017-06-10T01:22:33.414Z,16.70
2017-06-10T01:25:06.615Z,16.80
2017-06-10T01:27:39.752Z,16.80
2017-06-10T01:30:13.094Z,16.80
2017-06-10T01:32:47.093Z,16.80
2017-06-10T01:35:21.066Z,16.80
2017-06-10T01:37:54.103Z,16.80
2017-06-10T01:40:27.601Z,16.80
2017-06-10T01:43:00.892Z,16.80
2017-06-10T01:45:35.009Z,16.80
2017-06-10T01:48:08.508Z,16.80
2017-06-10T01:50:41.679Z,16.80
2017-06-10T01:53:14.006Z,16.80
2017-06-10T01:55:46.493Z,16.80
2017-06-10T01:58:19.314Z,16.80
2017-06-10T02:00:53.339Z,16.70
2017-06-10T02:03:25.982Z,16.70
2017-06-10T02:05:59.114Z,16.80
2017-06-10T02:08:32.222Z,16.80
2017-06-10T02:11:05.847Z,16.70
2017-06-10T02:13:39.345Z,16.70
2017-06-10T02:16:12.897Z,16.60
2017-06-10T02:18:45.821Z,16.50
2017-06-10T02:21:19.366Z,16.60
2017-06-10T02:23:52.833Z,16.50
2017-06-10T02:26:25.973Z,16.50
2017-06-10T02:28:59.195Z,16.40
2017-06-10T02:31:32.334Z,16.30
2017-06-10T02:34:05.962Z,16.30
2017-06-10T02:36:40.401Z,16.30
2017-06-10T02:39:13.322Z,16.20
2017-06-10T02:41:46.319Z,16.30
2017-06-10T02:44:19.270Z,16.20
2017-06-10T02:46:52.083Z,15.90
2017-06-10T02:49:24.882Z,15.80
2017-06-10T02:51:58.359Z,15.80
2017-06-10T02:54:31.522Z,15.90
2017-06-10T02:57:05.190Z,15.80
2017-06-10T02:59:38.095Z,15.70
2017-06-10T03:02:11.006Z,15.70
2017-06-10T03:04:43.590Z,15.60
2017-06-10T03:07:16.470Z,15.60
2017-06-10T03:09:49.934Z,15.40
2017-06-10T03:12:22.898Z,15.40
2017-06-10T03:14:55.822Z,15.40
2017-06-10T03:17:29.005Z,15.30
2017-06-10T03:20:02.794Z,15.30
2017-06-10T03:22:36.153Z,15.30
2017-06-10T03:25:10.359Z,15.30
2017-06-10T03:27:43.621Z,15.30
2017-06-10T03:30:16.661Z,15.30
2017-06-10T03:33:09.645Z,15.30
2017-06-10T03:35:42.249Z,15.30
2017-06-10T03:38:14.639Z,15.40
2017-06-10T03:40:46.972Z,15.50
2017-06-10T03:43:19.750Z,15.30
2017-06-10T03:45:52.373Z,15.30
2017-06-10T03:48:25.002Z,15.40
2017-06-10T03:50:58.645Z,15.50
2017-06-10T03:53:31.577Z,15.50
2017-06-10T03:56:04.249Z,15.60
2017-06-10T03:58:37.354Z,15.60
2017-06-10T04:01:11.814Z,15.60
2017-06-10T04:03:44.866Z,15.60
2017-06-10T04:06:18.274Z,15.60
2017-06-10T04:08:50.685Z,15.60
2017-06-10T04:11:23.404Z,15.50
2017-06-10T04:13:56.894Z,15.50
2017-06-10T04:16:29.902Z,15.60
2017-06-10T04:19:03.022Z,15.60
2017-06-10T04:21:36.130Z,15.60
2017-06-10T04:24:09.383Z,15.70
2017-06-10T04:26:43.346Z,15.70
2017-06-10T04:29:16.355Z,15.70
2017-06-10T04:31:49.630Z,15.80
2017-06-10T04:34:22.050Z,15.80
2017-06-10T04:36:54.558Z,15.80
2017-06-10T04:39:28.727Z,15.80
2017-06-10T04:42:01.645Z,15.80
2017-06-10T04:44:34.161Z,15.90
2017-06-10T04:47:06.549Z,15.90
2017-06-10T04:49:39.840Z,15.80
2017-06-10T04:52:12.170Z,15.80
2017-06-10T04:54:44.946Z,15.80
2017-06-10T04:57:18.095Z,15.90
2017-06-10T04:59:50.807Z,15.90
2017-06-10T05:02:24.029Z,15.90
2017-06-10T05:04:56.986Z,16.00
2017-06-10T05:07:29.955Z,16.20
2017-06-10T05:10:03.914Z,16.20
2017-06-10T05:12:36.597Z,16.30
2017-06-10T05:15:09.160Z,16.30
2017-06-10T05:17:41.548Z,16.40
2017-06-10T05:20:14.033Z,16.40
2017-06-10T05:22:46.394Z,16.40
2017-06-10T05:25:19.356Z,16.40
2017-06-10T05:27:52.426Z,16.30
2017-06-10T05:30:24.818Z,16.30
2017-06-10T05:32:57.224Z,16.30
2017-06-10T05:35:29.705Z,16.20
2017-06-10T05:38:02.132Z,16.30
2017-06-10T05:40:34.809Z,16.30
2017-06-10T05:43:07.153Z,16.40
2017-06-10T05:45:40.729Z,16.40
2017-06-10T05:48:14.732Z,16.50
2017-06-10T05:50:47.190Z,16.80
2017-06-10T05:53:20.478Z,17.00
2017-06-10T05:55:53.550Z,17.40
2017-06-10T05:58:26.270Z,18.50
2017-06-10T06:00:58.687Z,21.00
2017-06-10T06:03:31.055Z,23.50
2017-06-10T06:06:03.837Z,24.30
2017-06-10T06:08:36.798Z,25.10
2017-06-10T06:11:09.393Z,25.20
2017-06-10T06:13:41.724Z,25.90
2017-06-10T06:16:17.564Z,27.20
2017-06-10T06:18:50.594Z,28.10
2017-06-10T06:21:23.110Z,27.70
2017-06-10T06:23:55.975Z,26.30
2017-06-10T06:26:28.582Z,27.30
2017-06-10T06:29:01.158Z,28.40
2017-06-10T06:31:34.012Z,27.50
2017-06-10T06:34:07.250Z,26.80
2017-06-10T06:36:40.035Z,25.80
2017-06-10T06:39:12.433Z,23.80
2017-06-10T06:41:46.493Z,23.20
2017-06-10T06:44:20.142Z,23.20
2017-06-10T06:46:53.916Z,22.80
2017-06-10T06:49:28.104Z,24.90
2017-06-10T06:52:03.350Z,26.40
2017-06-10T06:54:36.126Z,27.20
2017-06-10T06:57:09.186Z,27.90
2017-06-10T06:59:41.654Z,30.20
2017-06-10T07:02:16.935Z,28.30
2017-06-10T07:04:51.230Z,28.30
2017-06-10T07:07:25.274Z,26.70
2017-06-10T07:09:58.897Z,25.40
2017-06-10T07:12:32.242Z,25.80
2017-06-10T07:15:05.334Z,27.80
2017-06-10T07:17:38.086Z,28.40
2017-06-10T07:20:10.506Z,27.10
2017-06-10T07:22:43.094Z,27.10
2017-06-10T07:25:15.499Z,26.60
2017-06-10T07:27:49.278Z,28.10
2017-06-10T07:30:21.765Z,30.60
2017-06-10T07:32:54.414Z,30.90
2017-06-10T07:35:27.102Z,31.90
2017-06-10T07:37:59.782Z,33.70
2017-06-10T07:40:32.420Z,33.30
2017-06-10T07:43:05.278Z,32.30
2017-06-10T07:45:37.869Z,31.70
2017-06-10T07:48:10.723Z,30.20
2017-06-10T07:50:44.443Z,28.40
2017-06-10T07:53:17.262Z,25.30
2017-06-10T07:55:51.138Z,23.20
2017-06-10T07:58:23.810Z,22.00
2017-06-10T08:00:56.313Z,20.90
2017-06-10T08:03:29.014Z,21.10
2017-06-10T08:06:01.721Z,21.30
2017-06-10T08:08:34.487Z,21.40
2017-06-10T08:11:06.841Z,22.80
2017-06-10T08:13:39.569Z,25.00
2017-06-10T08:16:12.528Z,26.80
2017-06-10T08:18:45.706Z,28.10
2017-06-10T08:21:18.672Z,28.70
2017-06-10T08:23:51.208Z,28.60
2017-06-10T08:26:26.070Z,27.30
2017-06-10T08:28:59.910Z,25.90
2017-06-10T08:31:32.274Z,24.80
2017-06-10T08:34:05.236Z,23.80
2017-06-10T08:36:37.613Z,23.50
2017-06-10T08:39:10.374Z,23.20
2017-06-10T08:41:43.481Z,24.10
2017-06-10T08:44:16.674Z,23.80
2017-06-10T08:46:49.185Z,23.70
2017-06-10T08:49:22.274Z,23.90
2017-06-10T08:51:55.068Z,24.20
2017-06-10T08:54:27.477Z,25.10
2017-06-10T08:57:00.610Z,25.60
2017-06-10T08:59:33.593Z,25.50
2017-06-10T09:02:06.071Z,25.30
2017-06-10T09:04:39.045Z,26.10
2017-06-10T09:07:11.934Z,26.90
2017-06-10T09:09:44.561Z,26.20
2017-06-10T09:27:42.657Z,24.20
2017-06-10T09:30:15.038Z,24.70
2017-06-10T09:32:47.477Z,24.60
2017-06-10T09:35:19.843Z,25.10
2017-06-10T09:37:52.286Z,25.70
2017-06-10T09:40:25.371Z,25.70
2017-06-10T09:42:58.049Z,25.80
2017-06-10T09:45:31.088Z,25.50
2017-06-10T09:48:05.712Z,26.50
2017-06-10T09:50:38.755Z,26.10
2017-06-10T09:53:11.880Z,26.60
2017-06-10T09:55:45.063Z,25.40
2017-06-10T09:58:17.870Z,24.70
2017-06-10T10:00:50.583Z,24.50
2017-06-10T10:03:23.091Z,24.10
2017-06-10T10:05:57.058Z,23.70
2017-06-10T10:08:30.630Z,23.50
2017-06-10T10:11:03.237Z,23.20
2017-06-10T10:13:36.292Z,23.10
2017-06-10T10:16:10.273Z,22.80
2017-06-10T10:18:42.957Z,23.10
2017-06-10T10:21:15.509Z,23.60
2017-06-10T10:23:48.446Z,23.70
2017-06-10T10:26:21.013Z,23.50
2017-06-10T10:28:53.474Z,23.40
2017-06-10T10:31:26.048Z,23.30
2017-06-10T10:33:59.428Z,23.30
2017-06-10T10:36:31.976Z,23.20
2017-06-10T10:39:05.024Z,23.40
2017-06-10T10:41:37.424Z,23.30
2017-06-10T10:44:09.876Z,22.90
2017-06-10T10:46:43.531Z,22.40
2017-06-10T10:49:16.593Z,22.50
2017-06-10T10:51:49.874Z,22.80
2017-06-10T10:54:22.841Z,22.90
2017-06-10T10:56:55.823Z,22.80
2017-06-10T10:59:28.420Z,23.20
2017-06-10T11:02:01.479Z,23.40
2017-06-10T11:04:34.872Z,23.80
2017-06-10T11:07:07.235Z,24.50
2017-06-10T11:09:39.980Z,24.50
2017-06-10T11:12:12.332Z,24.30
2017-06-10T11:14:44.815Z,24.10
2017-06-10T11:17:17.242Z,24.10
2017-06-10T11:19:49.825Z,23.90
2017-06-10T11:22:22.619Z,23.80
2017-06-10T11:24:55.987Z,23.80
2017-06-10T11:27:28.665Z,24.20
2017-06-10T11:30:01.805Z,24.30
2017-06-10T11:32:34.285Z,23.90
2017-06-10T11:35:07.271Z,23.70
2017-06-10T11:37:39.997Z,24.10
2017-06-10T11:40:13.413Z,24.10
2017-06-10T11:42:45.932Z,24.30
2017-06-10T11:45:19.121Z,24.70
2017-06-10T11:47:51.721Z,25.00
2017-06-10T11:50:24.217Z,25.20
2017-06-10T11:52:57.133Z,25.10
2017-06-10T11:55:29.497Z,25.10
2017-06-10T11:58:02.028Z,25.50
2017-06-10T12:00:34.597Z,26.00
2017-06-10T12:03:07.427Z,25.50
2017-06-10T12:05:39.914Z,25.80
2017-06-10T12:08:12.328Z,26.10
2017-06-10T12:10:45.203Z,26.00
2017-06-10T12:13:18.183Z,25.80
2017-06-10T12:15:51.239Z,25.20
2017-06-10T12:18:23.599Z,25.20
2017-06-10T12:20:56.125Z,25.30
2017-06-10T12:23:28.796Z,24.80
2017-06-10T12:26:01.517Z,24.30
2017-06-10T12:28:34.055Z,23.90
2017-06-10T12:31:07.054Z,24.00
2017-06-10T12:33:40.517Z,24.20
2017-06-10T12:36:13.181Z,24.00
2017-06-10T12:38:45.649Z,24.10
2017-06-10T12:41:18.080Z,24.10
2017-06-10T12:43:50.842Z,24.20
2017-06-10T12:46:23.514Z,24.30
2017-06-10T12:48:55.982Z,24.40
2017-06-10T12:51:28.354Z,24.40
2017-06-10T12:54:01.513Z,24.40
2017-06-10T12:56:34.053Z,23.80
2017-06-10T12:59:06.943Z,23.90
2017-06-10T13:01:39.458Z,23.80
2017-06-10T13:05:40.488Z,23.90
2017-06-10T13:08:12.977Z,24.10
2017-06-10T13:10:46.255Z,24.40
2017-06-10T13:13:18.659Z,24.40
2017-06-10T13:15:51.062Z,24.40
2017-06-10T13:18:23.387Z,24.20
2017-06-10T13:20:55.812Z,24.10
2017-06-10T13:23:28.948Z,24.20
2017-06-10T13:26:01.632Z,23.90
2017-06-10T13:28:34.126Z,24.20
2017-06-10T13:31:06.702Z,24.10
2017-06-10T13:33:39.354Z,24.30
2017-06-10T13:36:11.674Z,24.10
2017-06-10T13:38:46.202Z,23.30
2017-06-10T13:41:19.011Z,23.00
2017-06-10T13:43:51.468Z,23.20
2017-06-10T13:46:23.771Z,23.20
2017-06-10T13:48:56.734Z,23.20
2017-06-10T13:54:10.515Z,23.70
2017-06-10T13:56:44.201Z,24.00
2017-06-10T13:59:17.150Z,24.00
2017-06-10T14:01:49.895Z,24.00
2017-06-10T14:04:22.774Z,23.60
2017-06-10T14:06:55.044Z,23.50
2017-06-10T14:09:27.901Z,23.50
2017-06-10T14:12:00.374Z,23.30
2017-06-10T14:14:33.455Z,23.30
2017-06-10T14:17:05.985Z,23.50
2017-06-10T14:19:38.791Z,23.60
2017-06-10T14:22:11.232Z,23.60
2017-06-10T14:24:43.663Z,23.50
2017-06-10T14:27:16.807Z,23.20
2017-06-10T14:29:50.144Z,23.30
2017-06-10T14:32:22.754Z,23.60
2017-06-10T14:34:55.425Z,23.70
2017-06-10T14:37:27.920Z,23.80
2017-06-10T14:40:01.757Z,23.70
2017-06-10T14:42:34.070Z,23.60
2017-06-10T14:45:06.998Z,23.30
2017-06-10T14:47:39.780Z,23.20
2017-06-10T14:50:12.533Z,23.20
2017-06-10T14:52:44.989Z,23.30
2017-06-10T14:55:19.773Z,23.50
2017-06-10T14:57:52.108Z,23.40
2017-06-10T15:00:24.959Z,23.40
2017-06-10T15:02:57.682Z,23.40
2017-06-10T15:05:30.086Z,23.50
2017-06-10T15:08:02.518Z,23.60
2017-06-10T15:10:37.037Z,23.30
2017-06-10T15:13:10.513Z,23.40
2017-06-10T15:15:43.187Z,23.50
2017-06-10T15:18:15.642Z,23.30
2017-06-10T15:20:48.823Z,23.00
2017-06-10T15:23:21.355Z,22.80
2017-06-10T15:25:54.488Z,22.60
2017-06-10T15:28:27.296Z,22.60
2017-06-10T15:31:00.048Z,22.50
2017-06-10T15:33:33.163Z,22.40
2017-06-10T15:36:06.436Z,22.40
2017-06-10T15:38:39.129Z,22.40
2017-06-10T15:41:11.936Z,22.40
2017-06-10T15:43:45.031Z,22.20
2017-06-10T15:46:17.441Z,22.10
2017-06-10T15:48:50.359Z,22.10
2017-06-10T15:51:23.064Z,22.30
2017-06-10T15:53:55.500Z,22.40
2017-06-10T15:56:28.206Z,22.50
2017-06-10T15:59:01.202Z,22.60
2017-06-10T16:01:34.194Z,22.50
2017-06-10T16:04:06.968Z,22.50
2017-06-10T16:06:39.591Z,22.40
2017-06-10T16:09:12.469Z,22.40
2017-06-10T16:11:45.304Z,22.50
2017-06-10T16:14:18.391Z,22.40
2017-06-10T16:16:50.883Z,22.50
2017-06-10T16:19:24.239Z,22.50
2017-06-10T16:21:57.093Z,22.60
2017-06-10T16:24:29.507Z,22.60
2017-06-10T16:27:01.987Z,22.30
2017-06-10T16:29:34.499Z,22.50
2017-06-10T16:32:07.347Z,22.70
2017-06-10T16:34:39.857Z,22.60
2017-06-10T16:37:13.615Z,22.60
2017-06-10T16:39:47.670Z,22.40
2017-06-10T16:42:20.181Z,22.30
2017-06-10T16:44:53.375Z,22.40
2017-06-10T16:47:26.303Z,22.40
2017-06-10T16:49:58.887Z,22.60
2017-06-10T16:52:33.118Z,22.70
2017-06-10T16:55:05.949Z,22.70
2017-06-10T16:57:39.037Z,22.70
2017-06-10T17:00:12.087Z,22.60
2017-06-10T17:02:44.427Z,22.60
2017-06-10T17:05:16.856Z,22.30
2017-06-10T17:07:49.312Z,22.20
2017-06-10T17:10:21.935Z,22.20
2017-06-10T17:12:55.416Z,22.20
2017-06-10T17:15:28.730Z,22.10
2017-06-10T17:18:01.128Z,22.00
2017-06-10T17:20:33.681Z,22.00
2017-06-10T17:23:06.295Z,21.80
2017-06-10T17:25:38.771Z,21.70
2017-06-10T17:28:11.632Z,21.70
2017-06-10T17:30:43.894Z,21.70
2017-06-10T17:33:16.948Z,21.70
2017-06-10T17:35:50.172Z,21.60
2017-06-10T17:38:22.683Z,21.60
2017-06-10T17:40:57.292Z,21.50
2017-06-10T17:43:29.709Z,21.40
2017-06-10T17:46:02.947Z,21.40
2017-06-10T17:48:35.659Z,21.40
2017-06-10T17:51:08.827Z,21.50
2017-06-10T17:53:41.668Z,21.60
2017-06-10T17:56:14.544Z,21.60
2017-06-10T17:58:47.754Z,21.50
2017-06-10T18:01:20.685Z,21.50
2017-06-10T18:03:53.834Z,21.40
2017-06-10T18:06:26.382Z,21.30
2017-06-10T18:08:59.171Z,21.20
2017-06-10T18:11:31.576Z,21.10
2017-06-10T18:14:04.268Z,21.00
2017-06-10T18:16:37.084Z,20.90
2017-06-10T18:19:09.879Z,20.80
2017-06-10T18:21:42.491Z,20.70
2017-06-10T18:24:19.009Z,20.70
2017-06-10T18:26:55.343Z,20.60
2017-06-10T18:29:32.012Z,20.60
2017-06-10T18:32:08.635Z,20.50
2017-06-10T18:34:41.398Z,20.50
2017-06-10T18:37:14.319Z,20.40
2017-06-10T18:39:47.505Z,20.30
2017-06-10T18:42:20.408Z,20.20
2017-06-10T18:44:52.874Z,20.20
2017-06-10T18:47:25.437Z,20.10
2017-06-10T18:49:58.165Z,20.00
2017-06-10T18:52:30.553Z,19.90
2017-06-10T18:55:03.581Z,19.90
2017-06-10T18:57:35.912Z,19.80
2017-06-10T19:00:08.453Z,19.70
2017-06-10T19:02:43.653Z,19.60
2017-06-10T19:05:16.047Z,19.50
2017-06-10T19:07:50.879Z,19.50
2017-06-10T19:10:23.282Z,19.40
2017-06-10T19:12:56.158Z,19.30
2017-06-10T19:15:28.587Z,19.20
2017-06-10T19:18:01.063Z,19.20
2017-06-10T19:20:34.047Z,19.10
2017-06-10T19:23:06.393Z,19.00
2017-06-10T19:25:39.248Z,18.80
2017-06-10T19:28:11.805Z,18.70
2017-06-10T19:30:44.829Z,18.50
2017-06-10T19:33:18.261Z,18.30
2017-06-10T19:35:50.589Z,18.10
2017-06-10T19:38:23.295Z,18.10
2017-06-10T19:40:55.909Z,18.00
2017-06-10T19:43:29.311Z,17.90
2017-06-10T19:46:02.732Z,17.80
2017-06-10T19:48:35.732Z,17.80
2017-06-10T19:51:09.423Z,17.80
2017-06-10T19:53:42.369Z,17.70
2017-06-10T19:56:16.169Z,17.60
2017-06-10T19:58:49.384Z,17.50
2017-06-10T20:01:22.151Z,17.50
2017-06-10T20:03:54.577Z,17.40
2017-06-10T20:06:26.869Z,17.30
2017-06-10T20:08:59.500Z,17.20
2017-06-10T20:11:32.099Z,17.10
2017-06-10T20:14:05.001Z,17.00
2017-06-10T20:16:38.700Z,16.90
2017-06-10T20:19:11.111Z,16.90
2017-06-10T20:21:44.019Z,16.90
2017-06-10T20:24:17.156Z,16.80
2017-06-10T20:26:50.419Z,16.80
2017-06-10T20:29:22.775Z,16.70
2017-06-10T20:31:55.355Z,16.70
2017-06-10T20:34:27.958Z,16.60
2017-06-10T20:37:00.228Z,16.60
2017-06-10T20:39:33.494Z,16.60
2017-06-10T20:42:06.589Z,16.50
2017-06-10T20:44:39.426Z,16.50
2017-06-10T20:47:11.858Z,16.40
2017-06-10T20:49:44.147Z,16.40
2017-06-10T20:52:17.087Z,16.40
2017-06-10T20:54:50.175Z,16.30
2017-06-10T20:57:23.419Z,16.30
2017-06-10T20:59:57.333Z,16.20
2017-06-10T21:02:30.410Z,16.20
2017-06-10T21:05:03.149Z,16.20
2017-06-10T21:07:35.470Z,16.20
2017-06-10T21:10:07.841Z,16.20
2017-06-10T21:12:40.240Z,16.20
2017-06-10T21:15:13.387Z,16.20
2017-06-10T21:17:45.671Z,16.20
2017-06-10T21:20:19.607Z,16.20
2017-06-10T21:22:52.820Z,16.20
2017-06-10T21:25:25.702Z,16.10
2017-06-10T21:27:58.975Z,16.10
2017-06-10T21:30:32.020Z,16.10
2017-06-10T21:33:05.058Z,16.10
2017-06-10T21:35:38.442Z,16.00
2017-06-10T21:38:11.730Z,16.00
2017-06-10T21:40:44.871Z,16.00
2017-06-10T21:43:17.751Z,16.00
2017-06-10T21:45:51.111Z,16.00
2017-06-10T21:48:23.734Z,15.90
2017-06-10T21:50:56.408Z,15.80
2017-06-10T21:53:29.190Z,15.80
2017-06-10T21:56:01.941Z,15.80
2017-06-10T21:58:34.351Z,15.70
2017-06-10T22:01:06.592Z,15.70
2017-06-10T22:03:39.377Z,15.60
2017-06-10T22:06:12.118Z,15.50
2017-06-10T22:08:45.019Z,15.40
2017-06-10T22:11:17.971Z,15.30
2017-06-10T22:13:50.343Z,15.30
2017-06-10T22:16:23.578Z,15.20
2017-06-10T22:18:57.351Z,15.20
2017-06-10T22:21:30.063Z,15.10
2017-06-10T22:24:03.236Z,15.20
2017-06-10T22:26:35.988Z,15.10
2017-06-10T22:29:08.871Z,15.10
2017-06-10T22:31:41.821Z,15.10
2017-06-10T22:34:14.573Z,15.10
2017-06-10T22:36:47.450Z,15.00
2017-06-10T22:39:20.889Z,15.00
2017-06-10T22:41:54.639Z,14.90
2017-06-10T22:44:28.660Z,15.00
2017-06-10T22:47:02.987Z,14.90
2017-06-10T22:49:37.098Z,14.90
2017-06-10T22:52:10.519Z,14.80
2017-06-10T22:54:43.713Z,14.80
2017-06-10T22:57:19.875Z,14.80
2017-06-10T22:59:53.919Z,14.70
2017-06-10T23:02:28.285Z,14.60
2017-06-10T23:05:02.093Z,14.60
2017-06-10T23:07:36.253Z,14.60
2017-06-10T23:10:11.312Z,14.60
2017-06-10T23:12:44.814Z,14.50
2017-06-10T23:15:18.205Z,14.50
2017-06-10T23:17:51.385Z,14.40
2017-06-10T23:20:25.928Z,14.30
2017-06-10T23:23:00.759Z,14.20
2017-06-10T23:25:34.188Z,14.30
2017-06-10T23:28:08.011Z,14.30
2017-06-10T23:30:43.288Z,14.30
2017-06-10T23:33:17.959Z,14.30
2017-06-10T23:35:52.396Z,14.30
2017-06-10T23:38:25.782Z,14.20
2017-06-10T23:40:59.735Z,14.20
2017-06-10T23:43:33.234Z,14.20
2017-06-10T23:46:07.081Z,14.10
2017-06-10T23:48:40.030Z,14.10
2017-06-10T23:51:13.591Z,14.10
2017-06-10T23:53:46.760Z,14.10
2017-06-10T23:56:19.559Z,14.00
2017-06-10T23:58:52.754Z,14.00
